sensor_id;sensor_type;location;lat;lon;timestamp;P1;durP1;ratioP1;P2;durP2;ratioP2
1765;SDS011;880;52.452;8.656;2023-09-19T00:01:40;6.00;;;5.55;;
1765;SDS011;880;52.452;8.656;2023-09-19T00:04:08;5.00;;;4.70;;
1765;SDS011;880;52.452;8.656;2023-09-19T00:06:36;5.40;;;5.00;;
1765;SDS011;880;52.452;8.656;2023-09-19T00:09:04;6.65;;;6.10;;
1765;SDS011;880;52.452;8.656;2023-09-19T00:11:37;4.93;;;4.63;;
1765;SDS011;880;52.452;8.656;2023-09-19T00:14:04;5.68;;;5.22;;
1765;SDS011;880;52.452;8.656;2023-09-19T00:16:34;6.00;;;5.47;;
1765;SDS011;880;52.452;8.656;2023-09-19T00:19:02;5.88;;;5.38;;
1765;SDS011;880;52.452;8.656;2023-09-19T00:21:31;5.60;;;5.25;;
1765;SDS011;880;52.452;8.656;2023-09-19T00:23:58;5.53;;;5.13;;
1765;SDS011;880;52.452;8.656;2023-09-19T00:26:25;5.35;;;4.82;;
1765;SDS011;880;52.452;8.656;2023-09-19T00:28:57;4.10;;;3.70;;
1765;SDS011;880;52.452;8.656;2023-09-19T00:31:31;4.95;;;4.65;;
1765;SDS011;880;52.452;8.656;2023-09-19T00:33:58;5.72;;;5.25;;
1765;SDS011;880;52.452;8.656;2023-09-19T00:36:26;7.72;;;5.70;;
1765;SDS011;880;52.452;8.656;2023-09-19T00:38:53;10.77;;;5.35;;
1765;SDS011;880;52.452;8.656;2023-09-19T00:41:20;6.10;;;4.85;;
1765;SDS011;880;52.452;8.656;2023-09-19T00:43:47;5.68;;;5.28;;
1765;SDS011;880;52.452;8.656;2023-09-19T00:46:16;5.45;;;5.03;;
1765;SDS011;880;52.452;8.656;2023-09-19T00:48:45;6.95;;;4.95;;
1765;SDS011;880;52.452;8.656;2023-09-19T00:51:12;4.88;;;4.47;;
1765;SDS011;880;52.452;8.656;2023-09-19T00:53:41;7.47;;;4.85;;
1765;SDS011;880;52.452;8.656;2023-09-19T00:56:12;7.82;;;5.55;;
1765;SDS011;880;52.452;8.656;2023-09-19T00:58:46;5.30;;;5.00;;
1765;SDS011;880;52.452;8.656;2023-09-19T01:01:14;6.00;;;5.00;;
1765;SDS011;880;52.452;8.656;2023-09-19T01:03:42;5.18;;;4.78;;
1765;SDS011;880;52.452;8.656;2023-09-19T01:06:12;4.32;;;3.78;;
1765;SDS011;880;52.452;8.656;2023-09-19T01:08:39;7.03;;;4.72;;
1765;SDS011;880;52.452;8.656;2023-09-19T01:11:33;5.57;;;5.05;;
1765;SDS011;880;52.452;8.656;2023-09-19T01:14:15;5.50;;;5.03;;
1765;SDS011;880;52.452;8.656;2023-09-19T01:17:02;5.32;;;4.63;;
1765;SDS011;880;52.452;8.656;2023-09-19T01:19:50;5.38;;;4.70;;
1765;SDS011;880;52.452;8.656;2023-09-19T01:28:53;5.13;;;4.70;;
1765;SDS011;880;52.452;8.656;2023-09-19T01:31:39;5.13;;;4.80;;
1765;SDS011;880;52.452;8.656;2023-09-19T01:34:09;5.25;;;4.82;;
1765;SDS011;880;52.452;8.656;2023-09-19T01:36:36;7.70;;;5.10;;
1765;SDS011;880;52.452;8.656;2023-09-19T01:39:06;5.45;;;5.05;;
1765;SDS011;880;52.452;8.656;2023-09-19T01:47:32;5.05;;;4.75;;
1765;SDS011;880;52.452;8.656;2023-09-19T01:50:07;5.22;;;4.93;;
1765;SDS011;880;52.452;8.656;2023-09-19T01:53:14;5.88;;;4.90;;
1765;SDS011;880;52.452;8.656;2023-09-19T01:55:51;5.10;;;4.65;;
1765;SDS011;880;52.452;8.656;2023-09-19T01:58:20;5.15;;;4.65;;
1765;SDS011;880;52.452;8.656;2023-09-19T02:00:51;6.00;;;4.85;;
1765;SDS011;880;52.452;8.656;2023-09-19T02:03:21;4.60;;;4.20;;
1765;SDS011;880;52.452;8.656;2023-09-19T02:05:49;6.45;;;5.88;;
1765;SDS011;880;52.452;8.656;2023-09-19T02:08:18;5.25;;;4.85;;
1765;SDS011;880;52.452;8.656;2023-09-19T02:10:46;7.15;;;4.65;;
1765;SDS011;880;52.452;8.656;2023-09-19T02:13:16;6.25;;;5.22;;
1765;SDS011;880;52.452;8.656;2023-09-19T02:15:48;5.60;;;4.53;;
1765;SDS011;880;52.452;8.656;2023-09-19T02:18:15;5.40;;;4.80;;
1765;SDS011;880;52.452;8.656;2023-09-19T02:20:43;4.65;;;4.38;;
1765;SDS011;880;52.452;8.656;2023-09-19T02:23:10;4.85;;;4.45;;
1765;SDS011;880;52.452;8.656;2023-09-19T02:25:39;4.88;;;4.55;;
1765;SDS011;880;52.452;8.656;2023-09-19T02:28:07;4.15;;;3.95;;
1765;SDS011;880;52.452;8.656;2023-09-19T02:30:35;5.43;;;4.88;;
1765;SDS011;880;52.452;8.656;2023-09-19T02:33:03;4.85;;;4.40;;
1765;SDS011;880;52.452;8.656;2023-09-19T02:35:30;7.00;;;4.70;;
1765;SDS011;880;52.452;8.656;2023-09-19T02:38:02;5.03;;;4.50;;
1765;SDS011;880;52.452;8.656;2023-09-19T02:40:33;5.25;;;4.63;;
1765;SDS011;880;52.452;8.656;2023-09-19T02:43:02;6.03;;;4.70;;
1765;SDS011;880;52.452;8.656;2023-09-19T02:45:31;7.03;;;6.40;;
1765;SDS011;880;52.452;8.656;2023-09-19T02:47:59;5.95;;;5.43;;
1765;SDS011;880;52.452;8.656;2023-09-19T02:52:56;6.10;;;5.53;;
1765;SDS011;880;52.452;8.656;2023-09-19T02:55:23;5.30;;;4.85;;
1765;SDS011;880;52.452;8.656;2023-09-19T02:57:51;9.98;;;5.35;;
1765;SDS011;880;52.452;8.656;2023-09-19T03:00:21;7.63;;;4.03;;
1765;SDS011;880;52.452;8.656;2023-09-19T03:02:50;10.50;;;5.07;;
1765;SDS011;880;52.452;8.656;2023-09-19T03:05:20;5.57;;;5.05;;
1765;SDS011;880;52.452;8.656;2023-09-19T03:07:51;6.55;;;5.10;;
1765;SDS011;880;52.452;8.656;2023-09-19T03:10:19;5.15;;;4.85;;
1765;SDS011;880;52.452;8.656;2023-09-19T03:12:47;6.40;;;5.80;;
1765;SDS011;880;52.452;8.656;2023-09-19T03:15:17;5.95;;;4.53;;
1765;SDS011;880;52.452;8.656;2023-09-19T03:17:47;5.40;;;3.80;;
1765;SDS011;880;52.452;8.656;2023-09-19T03:20:20;5.00;;;4.70;;
1765;SDS011;880;52.452;8.656;2023-09-19T03:22:49;5.05;;;4.63;;
1765;SDS011;880;52.452;8.656;2023-09-19T03:25:17;5.32;;;5.00;;
1765;SDS011;880;52.452;8.656;2023-09-19T03:27:48;7.22;;;4.70;;
1765;SDS011;880;52.452;8.656;2023-09-19T03:30:16;5.55;;;4.78;;
1765;SDS011;880;52.452;8.656;2023-09-19T03:32:47;5.10;;;4.70;;
1765;SDS011;880;52.452;8.656;2023-09-19T03:35:17;6.18;;;4.38;;
1765;SDS011;880;52.452;8.656;2023-09-19T03:37:46;5.03;;;4.65;;
1765;SDS011;880;52.452;8.656;2023-09-19T03:40:14;4.60;;;4.30;;
1765;SDS011;880;52.452;8.656;2023-09-19T03:42:42;4.35;;;3.22;;
1765;SDS011;880;52.452;8.656;2023-09-19T03:45:12;5.50;;;5.00;;
1765;SDS011;880;52.452;8.656;2023-09-19T03:47:44;4.50;;;4.13;;
1765;SDS011;880;52.452;8.656;2023-09-19T03:50:17;4.70;;;4.13;;
1765;SDS011;880;52.452;8.656;2023-09-19T03:52:45;5.22;;;4.82;;
1765;SDS011;880;52.452;8.656;2023-09-19T03:55:12;4.90;;;4.38;;
1765;SDS011;880;52.452;8.656;2023-09-19T03:57:40;5.65;;;4.38;;
1765;SDS011;880;52.452;8.656;2023-09-19T04:00:08;5.70;;;4.10;;
1765;SDS011;880;52.452;8.656;2023-09-19T04:02:39;5.57;;;5.00;;
1765;SDS011;880;52.452;8.656;2023-09-19T04:05:07;6.03;;;5.43;;
1765;SDS011;880;52.452;8.656;2023-09-19T04:07:35;6.72;;;5.45;;
1765;SDS011;880;52.452;8.656;2023-09-19T04:10:02;4.85;;;4.45;;
1765;SDS011;880;52.452;8.656;2023-09-19T04:12:31;5.72;;;5.15;;
1765;SDS011;880;52.452;8.656;2023-09-19T04:15:00;7.43;;;4.20;;
1765;SDS011;880;52.452;8.656;2023-09-19T04:17:27;6.20;;;5.15;;
1765;SDS011;880;52.452;8.656;2023-09-19T04:19:54;5.93;;;5.43;;
1765;SDS011;880;52.452;8.656;2023-09-19T04:22:21;6.82;;;5.57;;
1765;SDS011;880;52.452;8.656;2023-09-19T04:24:49;17.98;;;5.60;;
1765;SDS011;880;52.452;8.656;2023-09-19T04:27:16;5.85;;;5.45;;
1765;SDS011;880;52.452;8.656;2023-09-19T04:29:45;7.70;;;4.80;;
1765;SDS011;880;52.452;8.656;2023-09-19T04:32:12;7.80;;;6.10;;
1765;SDS011;880;52.452;8.656;2023-09-19T04:34:39;9.55;;;7.13;;
1765;SDS011;880;52.452;8.656;2023-09-19T04:37:07;7.10;;;6.45;;
1765;SDS011;880;52.452;8.656;2023-09-19T04:39:34;10.90;;;6.13;;
1765;SDS011;880;52.452;8.656;2023-09-19T04:42:01;7.00;;;6.47;;
1765;SDS011;880;52.452;8.656;2023-09-19T04:44:29;10.20;;;8.20;;
1765;SDS011;880;52.452;8.656;2023-09-19T04:46:56;7.47;;;6.85;;
1765;SDS011;880;52.452;8.656;2023-09-19T04:49:24;6.70;;;6.10;;
1765;SDS011;880;52.452;8.656;2023-09-19T04:51:51;12.43;;;6.93;;
1765;SDS011;880;52.452;8.656;2023-09-19T04:54:19;9.52;;;6.78;;
1765;SDS011;880;52.452;8.656;2023-09-19T04:56:46;7.93;;;7.13;;
1765;SDS011;880;52.452;8.656;2023-09-19T04:59:13;5.93;;;5.53;;
1765;SDS011;880;52.452;8.656;2023-09-19T05:01:41;6.97;;;6.38;;
1765;SDS011;880;52.452;8.656;2023-09-19T05:04:08;8.27;;;7.57;;
1765;SDS011;880;52.452;8.656;2023-09-19T05:06:35;7.72;;;7.03;;
1765;SDS011;880;52.452;8.656;2023-09-19T05:09:02;9.95;;;7.15;;
1765;SDS011;880;52.452;8.656;2023-09-19T05:11:31;8.15;;;7.35;;
1765;SDS011;880;52.452;8.656;2023-09-19T05:14:00;7.55;;;6.85;;
1765;SDS011;880;52.452;8.656;2023-09-19T05:16:30;7.55;;;6.28;;
1765;SDS011;880;52.452;8.656;2023-09-19T05:19:01;6.95;;;6.30;;
1765;SDS011;880;52.452;8.656;2023-09-19T05:21:29;7.47;;;6.75;;
1765;SDS011;880;52.452;8.656;2023-09-19T05:23:57;7.07;;;6.45;;
1765;SDS011;880;52.452;8.656;2023-09-19T05:26:24;7.50;;;6.68;;
1765;SDS011;880;52.452;8.656;2023-09-19T05:28:51;7.65;;;7.22;;
1765;SDS011;880;52.452;8.656;2023-09-19T05:31:19;7.38;;;6.88;;
1765;SDS011;880;52.452;8.656;2023-09-19T05:33:47;6.50;;;6.00;;
1765;SDS011;880;52.452;8.656;2023-09-19T05:36:14;7.47;;;6.28;;
1765;SDS011;880;52.452;8.656;2023-09-19T05:38:43;8.50;;;6.25;;
1765;SDS011;880;52.452;8.656;2023-09-19T05:41:11;7.28;;;6.55;;
1765;SDS011;880;52.452;8.656;2023-09-19T05:43:40;8.38;;;6.07;;
1765;SDS011;880;52.452;8.656;2023-09-19T05:46:08;6.78;;;6.38;;
1765;SDS011;880;52.452;8.656;2023-09-19T05:48:35;6.95;;;5.20;;
1765;SDS011;880;52.452;8.656;2023-09-19T05:51:02;8.65;;;7.80;;
1765;SDS011;880;52.452;8.656;2023-09-19T05:53:29;8.77;;;8.07;;
1765;SDS011;880;52.452;8.656;2023-09-19T05:55:56;8.88;;;6.80;;
1765;SDS011;880;52.452;8.656;2023-09-19T05:58:23;7.15;;;6.72;;
1765;SDS011;880;52.452;8.656;2023-09-19T06:00:50;6.28;;;5.80;;
1765;SDS011;880;52.452;8.656;2023-09-19T06:03:18;6.57;;;5.68;;
1765;SDS011;880;52.452;8.656;2023-09-19T06:05:46;6.35;;;5.95;;
1765;SDS011;880;52.452;8.656;2023-09-19T06:08:16;6.18;;;5.68;;
1765;SDS011;880;52.452;8.656;2023-09-19T06:10:43;5.78;;;5.50;;
1765;SDS011;880;52.452;8.656;2023-09-19T06:13:10;6.45;;;5.95;;
1765;SDS011;880;52.452;8.656;2023-09-19T06:15:37;6.55;;;6.15;;
1765;SDS011;880;52.452;8.656;2023-09-19T06:18:04;7.68;;;6.03;;
1765;SDS011;880;52.452;8.656;2023-09-19T06:20:32;5.82;;;5.43;;
1765;SDS011;880;52.452;8.656;2023-09-19T06:22:59;8.48;;;6.72;;
1765;SDS011;880;52.452;8.656;2023-09-19T06:25:28;7.68;;;7.13;;
1765;SDS011;880;52.452;8.656;2023-09-19T06:27:56;8.07;;;6.35;;
1765;SDS011;880;52.452;8.656;2023-09-19T06:30:24;9.52;;;6.15;;
1765;SDS011;880;52.452;8.656;2023-09-19T06:32:56;7.22;;;6.45;;
1765;SDS011;880;52.452;8.656;2023-09-19T06:35:24;7.60;;;6.93;;
1765;SDS011;880;52.452;8.656;2023-09-19T06:37:53;8.93;;;8.13;;
1765;SDS011;880;52.452;8.656;2023-09-19T06:40:20;9.93;;;7.82;;
1765;SDS011;880;52.452;8.656;2023-09-19T06:42:49;8.13;;;7.45;;
1765;SDS011;880;52.452;8.656;2023-09-19T06:45:19;12.60;;;7.45;;
1765;SDS011;880;52.452;8.656;2023-09-19T06:47:51;11.10;;;7.90;;
1765;SDS011;880;52.452;8.656;2023-09-19T06:50:19;7.32;;;6.82;;
1765;SDS011;880;52.452;8.656;2023-09-19T06:52:49;6.45;;;5.95;;
1765;SDS011;880;52.452;8.656;2023-09-19T06:55:22;6.85;;;6.53;;
1765;SDS011;880;52.452;8.656;2023-09-19T06:57:55;8.57;;;6.75;;
1765;SDS011;880;52.452;8.656;2023-09-19T07:00:22;10.55;;;7.72;;
1765;SDS011;880;52.452;8.656;2023-09-19T07:02:59;5.10;;;4.80;;
1765;SDS011;880;52.452;8.656;2023-09-19T07:05:31;8.82;;;8.05;;
1765;SDS011;880;52.452;8.656;2023-09-19T07:07:59;7.55;;;7.07;;
1765;SDS011;880;52.452;8.656;2023-09-19T07:10:30;8.50;;;7.63;;
1765;SDS011;880;52.452;8.656;2023-09-19T07:13:00;7.28;;;6.70;;
1765;SDS011;880;52.452;8.656;2023-09-19T07:15:38;7.50;;;7.00;;
1765;SDS011;880;52.452;8.656;2023-09-19T07:18:07;7.22;;;6.63;;
1765;SDS011;880;52.452;8.656;2023-09-19T07:20:37;5.05;;;4.85;;
1765;SDS011;880;52.452;8.656;2023-09-19T07:23:04;6.97;;;6.47;;
1765;SDS011;880;52.452;8.656;2023-09-19T07:25:32;6.88;;;6.28;;
1765;SDS011;880;52.452;8.656;2023-09-19T07:28:02;6.93;;;6.63;;
1765;SDS011;880;52.452;8.656;2023-09-19T07:30:29;6.60;;;6.28;;
1765;SDS011;880;52.452;8.656;2023-09-19T07:32:56;6.88;;;5.25;;
1765;SDS011;880;52.452;8.656;2023-09-19T07:35:23;6.45;;;5.85;;
1765;SDS011;880;52.452;8.656;2023-09-19T07:37:52;6.70;;;6.10;;
1765;SDS011;880;52.452;8.656;2023-09-19T07:40:19;7.38;;;6.82;;
1765;SDS011;880;52.452;8.656;2023-09-19T07:42:50;8.05;;;7.38;;
1765;SDS011;880;52.452;8.656;2023-09-19T07:45:17;7.72;;;7.30;;
1765;SDS011;880;52.452;8.656;2023-09-19T07:47:47;9.05;;;7.35;;
1765;SDS011;880;52.452;8.656;2023-09-19T07:50:16;8.68;;;8.23;;
1765;SDS011;880;52.452;8.656;2023-09-19T07:52:48;9.40;;;7.78;;
1765;SDS011;880;52.452;8.656;2023-09-19T07:55:19;8.25;;;7.65;;
1765;SDS011;880;52.452;8.656;2023-09-19T07:57:50;7.25;;;6.85;;
1765;SDS011;880;52.452;8.656;2023-09-19T08:00:18;7.55;;;7.07;;
1765;SDS011;880;52.452;8.656;2023-09-19T08:02:45;7.72;;;7.20;;
1765;SDS011;880;52.452;8.656;2023-09-19T08:05:22;7.28;;;6.80;;
1765;SDS011;880;52.452;8.656;2023-09-19T08:07:49;8.32;;;7.72;;
1765;SDS011;880;52.452;8.656;2023-09-19T08:10:17;8.15;;;7.45;;
1765;SDS011;880;52.452;8.656;2023-09-19T08:12:46;7.55;;;6.95;;
1765;SDS011;880;52.452;8.656;2023-09-19T08:15:20;7.50;;;7.13;;
1765;SDS011;880;52.452;8.656;2023-09-19T08:17:47;7.80;;;7.10;;
1765;SDS011;880;52.452;8.656;2023-09-19T08:20:15;7.55;;;7.05;;
1765;SDS011;880;52.452;8.656;2023-09-19T08:22:44;7.05;;;6.65;;
1765;SDS011;880;52.452;8.656;2023-09-19T08:25:15;6.35;;;5.97;;
1765;SDS011;880;52.452;8.656;2023-09-19T08:27:45;9.07;;;8.07;;
1765;SDS011;880;52.452;8.656;2023-09-19T08:30:16;7.55;;;7.05;;
1765;SDS011;880;52.452;8.656;2023-09-19T08:32:46;7.70;;;7.22;;
1765;SDS011;880;52.452;8.656;2023-09-19T08:35:14;7.65;;;7.03;;
1765;SDS011;880;52.452;8.656;2023-09-19T08:37:44;6.93;;;6.63;;
1765;SDS011;880;52.452;8.656;2023-09-19T08:40:14;12.95;;;7.50;;
1765;SDS011;880;52.452;8.656;2023-09-19T08:42:51;7.78;;;7.07;;
1765;SDS011;880;52.452;8.656;2023-09-19T08:45:24;7.40;;;6.70;;
1765;SDS011;880;52.452;8.656;2023-09-19T08:50:51;8.15;;;7.38;;
1765;SDS011;880;52.452;8.656;2023-09-19T08:56:12;9.48;;;7.43;;
1765;SDS011;880;52.452;8.656;2023-09-19T08:58:43;8.98;;;8.32;;
1765;SDS011;880;52.452;8.656;2023-09-19T09:01:20;8.65;;;7.95;;
1765;SDS011;880;52.452;8.656;2023-09-19T09:03:52;13.73;;;8.40;;
1765;SDS011;880;52.452;8.656;2023-09-19T09:06:21;8.68;;;8.18;;
1765;SDS011;880;52.452;8.656;2023-09-19T09:08:50;8.55;;;7.75;;
1765;SDS011;880;52.452;8.656;2023-09-19T09:11:18;7.70;;;7.30;;
1765;SDS011;880;52.452;8.656;2023-09-19T09:13:47;7.95;;;7.53;;
1765;SDS011;880;52.452;8.656;2023-09-19T09:16:14;9.98;;;7.93;;
1765;SDS011;880;52.452;8.656;2023-09-19T09:18:45;10.75;;;8.25;;
1765;SDS011;880;52.452;8.656;2023-09-19T09:24:36;8.52;;;8.02;;
1765;SDS011;880;52.452;8.656;2023-09-19T09:27:20;9.98;;;9.35;;
1765;SDS011;880;52.452;8.656;2023-09-19T09:29:51;8.60;;;7.53;;
1765;SDS011;880;52.452;8.656;2023-09-19T09:32:22;8.75;;;8.25;;
1765;SDS011;880;52.452;8.656;2023-09-19T09:34:56;7.97;;;7.45;;
1765;SDS011;880;52.452;8.656;2023-09-19T09:37:27;8.93;;;8.23;;
1765;SDS011;880;52.452;8.656;2023-09-19T09:39:58;9.10;;;8.30;;
1765;SDS011;880;52.452;8.656;2023-09-19T09:42:45;8.68;;;8.10;;
1765;SDS011;880;52.452;8.656;2023-09-19T09:45:19;9.20;;;8.38;;
1765;SDS011;880;52.452;8.656;2023-09-19T09:48:00;7.68;;;7.28;;
1765;SDS011;880;52.452;8.656;2023-09-19T09:50:31;8.02;;;7.32;;
1765;SDS011;880;52.452;8.656;2023-09-19T09:53:24;8.90;;;8.05;;
1765;SDS011;880;52.452;8.656;2023-09-19T09:55:57;8.85;;;7.95;;
1765;SDS011;880;52.452;8.656;2023-09-19T09:58:36;10.05;;;8.55;;
1765;SDS011;880;52.452;8.656;2023-09-19T10:01:07;11.52;;;8.23;;
1765;SDS011;880;52.452;8.656;2023-09-19T10:03:37;8.73;;;8.18;;
1765;SDS011;880;52.452;8.656;2023-09-19T10:06:07;9.07;;;8.05;;
1765;SDS011;880;52.452;8.656;2023-09-19T10:08:58;8.15;;;7.55;;
1765;SDS011;880;52.452;8.656;2023-09-19T10:14:33;8.80;;;8.20;;
1765;SDS011;880;52.452;8.656;2023-09-19T10:17:05;9.00;;;8.50;;
1765;SDS011;880;52.452;8.656;2023-09-19T10:22:26;8.93;;;8.40;;
1765;SDS011;880;52.452;8.656;2023-09-19T10:24:53;7.47;;;7.07;;
1765;SDS011;880;52.452;8.656;2023-09-19T10:27:28;11.55;;;8.20;;
1765;SDS011;880;52.452;8.656;2023-09-19T10:30:05;8.80;;;8.25;;
1765;SDS011;880;52.452;8.656;2023-09-19T10:32:35;8.88;;;8.38;;
1765;SDS011;880;52.452;8.656;2023-09-19T10:35:07;9.48;;;8.60;;
1765;SDS011;880;52.452;8.656;2023-09-19T10:37:39;7.45;;;6.95;;
1765;SDS011;880;52.452;8.656;2023-09-19T10:40:07;10.50;;;8.55;;
1765;SDS011;880;52.452;8.656;2023-09-19T10:42:35;8.60;;;8.07;;
1765;SDS011;880;52.452;8.656;2023-09-19T10:45:04;10.18;;;9.20;;
1765;SDS011;880;52.452;8.656;2023-09-19T10:47:39;10.35;;;8.68;;
1765;SDS011;880;52.452;8.656;2023-09-19T10:50:06;7.22;;;6.45;;
1765;SDS011;880;52.452;8.656;2023-09-19T10:52:37;7.93;;;7.32;;
1765;SDS011;880;52.452;8.656;2023-09-19T10:55:08;9.00;;;8.40;;
1765;SDS011;880;52.452;8.656;2023-09-19T10:57:37;8.70;;;8.20;;
1765;SDS011;880;52.452;8.656;2023-09-19T11:00:08;9.10;;;8.38;;
1765;SDS011;880;52.452;8.656;2023-09-19T11:05:39;8.95;;;8.25;;
1765;SDS011;880;52.452;8.656;2023-09-19T11:08:07;9.95;;;9.02;;
1765;SDS011;880;52.452;8.656;2023-09-19T11:10:45;12.32;;;8.52;;
1765;SDS011;880;52.452;8.656;2023-09-19T11:13:27;11.73;;;8.93;;
1765;SDS011;880;52.452;8.656;2023-09-19T11:26:51;9.38;;;8.77;;
1765;SDS011;880;52.452;8.656;2023-09-19T11:29:36;9.93;;;9.05;;
1765;SDS011;880;52.452;8.656;2023-09-19T11:32:04;7.63;;;6.93;;
1765;SDS011;880;52.452;8.656;2023-09-19T11:37:03;7.70;;;7.25;;
1765;SDS011;880;52.452;8.656;2023-09-19T11:39:38;8.13;;;7.65;;
1765;SDS011;880;52.452;8.656;2023-09-19T11:48:07;9.73;;;6.60;;
1765;SDS011;880;52.452;8.656;2023-09-19T11:50:35;22.33;;;8.45;;
1765;SDS011;880;52.452;8.656;2023-09-19T11:53:04;8.77;;;8.05;;
1765;SDS011;880;52.452;8.656;2023-09-19T11:55:32;9.02;;;8.52;;
1765;SDS011;880;52.452;8.656;2023-09-19T11:58:00;9.38;;;8.68;;
1765;SDS011;880;52.452;8.656;2023-09-19T12:00:27;8.85;;;8.35;;
1765;SDS011;880;52.452;8.656;2023-09-19T12:02:55;9.18;;;8.48;;
1765;SDS011;880;52.452;8.656;2023-09-19T12:05:28;10.52;;;9.63;;
1765;SDS011;880;52.452;8.656;2023-09-19T12:07:57;10.05;;;9.27;;
1765;SDS011;880;52.452;8.656;2023-09-19T12:10:24;9.25;;;8.70;;
1765;SDS011;880;52.452;8.656;2023-09-19T12:12:52;10.52;;;9.77;;
1765;SDS011;880;52.452;8.656;2023-09-19T12:15:23;7.95;;;7.25;;
1765;SDS011;880;52.452;8.656;2023-09-19T12:17:55;10.23;;;9.50;;
1765;SDS011;880;52.452;8.656;2023-09-19T12:20:22;11.45;;;10.30;;
1765;SDS011;880;52.452;8.656;2023-09-19T12:22:49;9.27;;;8.40;;
1765;SDS011;880;52.452;8.656;2023-09-19T12:25:16;10.57;;;9.68;;
1765;SDS011;880;52.452;8.656;2023-09-19T12:27:45;10.43;;;9.07;;
1765;SDS011;880;52.452;8.656;2023-09-19T12:30:14;10.13;;;9.52;;
1765;SDS011;880;52.452;8.656;2023-09-19T12:32:47;10.20;;;9.32;;
1765;SDS011;880;52.452;8.656;2023-09-19T12:35:28;10.48;;;9.57;;
1765;SDS011;880;52.452;8.656;2023-09-19T12:38:02;10.25;;;9.32;;
1765;SDS011;880;52.452;8.656;2023-09-19T12:40:30;10.95;;;10.15;;
1765;SDS011;880;52.452;8.656;2023-09-19T12:43:02;10.48;;;7.85;;
1765;SDS011;880;52.452;8.656;2023-09-19T12:45:33;9.50;;;8.70;;
1765;SDS011;880;52.452;8.656;2023-09-19T12:51:04;10.00;;;9.40;;
1765;SDS011;880;52.452;8.656;2023-09-19T12:53:35;9.32;;;8.57;;
1765;SDS011;880;52.452;8.656;2023-09-19T12:56:11;9.05;;;8.45;;
1765;SDS011;880;52.452;8.656;2023-09-19T12:58:48;9.60;;;8.80;;
1765;SDS011;880;52.452;8.656;2023-09-19T13:01:23;8.80;;;8.40;;
1765;SDS011;880;52.452;8.656;2023-09-19T13:04:29;9.55;;;8.93;;
1765;SDS011;880;52.452;8.656;2023-09-19T13:06:56;10.27;;;9.50;;
1765;SDS011;880;52.452;8.656;2023-09-19T13:09:27;9.93;;;9.23;;
1765;SDS011;880;52.452;8.656;2023-09-19T13:12:00;9.88;;;9.48;;
1765;SDS011;880;52.452;8.656;2023-09-19T13:14:29;9.90;;;9.18;;
1765;SDS011;880;52.452;8.656;2023-09-19T13:17:06;10.23;;;9.50;;
1765;SDS011;880;52.452;8.656;2023-09-19T13:19:46;8.52;;;8.02;;
1765;SDS011;880;52.452;8.656;2023-09-19T13:22:39;9.77;;;9.13;;
1765;SDS011;880;52.452;8.656;2023-09-19T13:25:20;10.13;;;9.10;;
1765;SDS011;880;52.452;8.656;2023-09-19T13:27:56;9.68;;;8.77;;
1765;SDS011;880;52.452;8.656;2023-09-19T13:30:25;9.43;;;8.80;;
1765;SDS011;880;52.452;8.656;2023-09-19T13:33:05;9.35;;;8.80;;
1765;SDS011;880;52.452;8.656;2023-09-19T13:35:39;8.45;;;8.02;;
1765;SDS011;880;52.452;8.656;2023-09-19T13:38:07;9.35;;;8.65;;
1765;SDS011;880;52.452;8.656;2023-09-19T13:40:38;7.65;;;6.93;;
1765;SDS011;880;52.452;8.656;2023-09-19T13:43:08;8.88;;;8.38;;
1765;SDS011;880;52.452;8.656;2023-09-19T13:45:35;9.07;;;8.38;;
1765;SDS011;880;52.452;8.656;2023-09-19T13:48:03;9.10;;;8.50;;
1765;SDS011;880;52.452;8.656;2023-09-19T13:50:31;9.20;;;8.45;;
1765;SDS011;880;52.452;8.656;2023-09-19T13:52:58;9.68;;;8.90;;
1765;SDS011;880;52.452;8.656;2023-09-19T13:55:26;8.63;;;8.23;;
1765;SDS011;880;52.452;8.656;2023-09-19T13:57:53;7.15;;;6.47;;
1765;SDS011;880;52.452;8.656;2023-09-19T14:00:22;8.50;;;8.15;;
1765;SDS011;880;52.452;8.656;2023-09-19T14:02:50;10.00;;;9.35;;
1765;SDS011;880;52.452;8.656;2023-09-19T14:05:18;8.52;;;8.13;;
1765;SDS011;880;52.452;8.656;2023-09-19T14:07:46;10.93;;;9.75;;
1765;SDS011;880;52.452;8.656;2023-09-19T14:10:13;9.52;;;8.95;;
1765;SDS011;880;52.452;8.656;2023-09-19T14:12:40;8.23;;;7.72;;
1765;SDS011;880;52.452;8.656;2023-09-19T14:15:11;8.80;;;8.30;;
1765;SDS011;880;52.452;8.656;2023-09-19T14:17:39;9.13;;;8.50;;
1765;SDS011;880;52.452;8.656;2023-09-19T14:20:11;8.85;;;8.25;;
1765;SDS011;880;52.452;8.656;2023-09-19T14:22:39;9.10;;;8.48;;
1765;SDS011;880;52.452;8.656;2023-09-19T14:25:07;8.75;;;8.25;;
1765;SDS011;880;52.452;8.656;2023-09-19T14:27:35;9.10;;;8.60;;
1765;SDS011;880;52.452;8.656;2023-09-19T14:30:02;8.55;;;7.95;;
1765;SDS011;880;52.452;8.656;2023-09-19T14:32:30;9.07;;;8.43;;
1765;SDS011;880;52.452;8.656;2023-09-19T14:34:57;8.80;;;8.40;;
1765;SDS011;880;52.452;8.656;2023-09-19T14:37:25;8.55;;;7.95;;
1765;SDS011;880;52.452;8.656;2023-09-19T14:39:54;7.78;;;7.47;;
1765;SDS011;880;52.452;8.656;2023-09-19T14:42:21;9.38;;;8.40;;
1765;SDS011;880;52.452;8.656;2023-09-19T14:44:49;8.82;;;8.15;;
1765;SDS011;880;52.452;8.656;2023-09-19T14:47:16;7.15;;;6.75;;
1765;SDS011;880;52.452;8.656;2023-09-19T14:49:43;8.85;;;8.15;;
1765;SDS011;880;52.452;8.656;2023-09-19T14:52:11;9.70;;;8.45;;
1765;SDS011;880;52.452;8.656;2023-09-19T14:54:41;8.13;;;7.72;;
1765;SDS011;880;52.452;8.656;2023-09-19T14:57:08;7.22;;;6.85;;
1765;SDS011;880;52.452;8.656;2023-09-19T14:59:36;8.50;;;7.85;;
1765;SDS011;880;52.452;8.656;2023-09-19T15:02:04;7.80;;;7.22;;
1765;SDS011;880;52.452;8.656;2023-09-19T15:04:31;8.93;;;8.32;;
1765;SDS011;880;52.452;8.656;2023-09-19T15:07:00;9.30;;;8.70;;
1765;SDS011;880;52.452;8.656;2023-09-19T15:09:28;9.68;;;9.18;;
1765;SDS011;880;52.452;8.656;2023-09-19T15:11:58;7.57;;;7.07;;
1765;SDS011;880;52.452;8.656;2023-09-19T15:14:25;9.40;;;8.77;;
1765;SDS011;880;52.452;8.656;2023-09-19T15:16:52;9.50;;;8.80;;
1765;SDS011;880;52.452;8.656;2023-09-19T15:19:19;9.25;;;8.75;;
1765;SDS011;880;52.452;8.656;2023-09-19T15:21:46;9.32;;;8.63;;
1765;SDS011;880;52.452;8.656;2023-09-19T15:24:13;8.95;;;8.30;;
1765;SDS011;880;52.452;8.656;2023-09-19T15:26:41;9.13;;;8.57;;
1765;SDS011;880;52.452;8.656;2023-09-19T15:29:10;10.63;;;9.60;;
1765;SDS011;880;52.452;8.656;2023-09-19T15:31:37;9.57;;;8.98;;
1765;SDS011;880;52.452;8.656;2023-09-19T15:34:04;9.98;;;9.35;;
1765;SDS011;880;52.452;8.656;2023-09-19T15:36:33;9.57;;;9.10;;
1765;SDS011;880;52.452;8.656;2023-09-19T15:39:04;9.65;;;9.07;;
1765;SDS011;880;52.452;8.656;2023-09-19T15:41:37;9.27;;;8.57;;
1765;SDS011;880;52.452;8.656;2023-09-19T15:44:13;9.30;;;8.80;;
1765;SDS011;880;52.452;8.656;2023-09-19T15:46:45;9.10;;;8.50;;
1765;SDS011;880;52.452;8.656;2023-09-19T15:49:13;8.52;;;8.13;;
1765;SDS011;880;52.452;8.656;2023-09-19T15:51:40;9.18;;;8.70;;
1765;SDS011;880;52.452;8.656;2023-09-19T15:54:11;9.48;;;8.55;;
1765;SDS011;880;52.452;8.656;2023-09-19T15:56:45;9.52;;;9.13;;
1765;SDS011;880;52.452;8.656;2023-09-19T15:59:13;7.35;;;6.88;;
1765;SDS011;880;52.452;8.656;2023-09-19T16:01:41;10.35;;;9.60;;
1765;SDS011;880;52.452;8.656;2023-09-19T16:04:10;10.18;;;9.57;;
1765;SDS011;880;52.452;8.656;2023-09-19T16:06:39;7.47;;;6.80;;
1765;SDS011;880;52.452;8.656;2023-09-19T16:09:08;8.93;;;8.43;;
1765;SDS011;880;52.452;8.656;2023-09-19T16:11:38;6.38;;;5.97;;
1765;SDS011;880;52.452;8.656;2023-09-19T16:14:08;8.15;;;7.60;;
1765;SDS011;880;52.452;8.656;2023-09-19T16:16:36;8.50;;;8.00;;
1765;SDS011;880;52.452;8.656;2023-09-19T16:19:04;8.52;;;7.95;;
1765;SDS011;880;52.452;8.656;2023-09-19T16:21:36;8.82;;;8.30;;
1765;SDS011;880;52.452;8.656;2023-09-19T16:24:06;8.70;;;8.30;;
1765;SDS011;880;52.452;8.656;2023-09-19T16:26:36;8.98;;;8.52;;
1765;SDS011;880;52.452;8.656;2023-09-19T16:29:03;8.65;;;8.05;;
1765;SDS011;880;52.452;8.656;2023-09-19T16:31:31;9.23;;;8.32;;
1765;SDS011;880;52.452;8.656;2023-09-19T16:33:59;7.78;;;7.20;;
1765;SDS011;880;52.452;8.656;2023-09-19T16:36:26;8.77;;;8.27;;
1765;SDS011;880;52.452;8.656;2023-09-19T16:38:54;8.82;;;8.48;;
1765;SDS011;880;52.452;8.656;2023-09-19T16:41:21;8.73;;;8.32;;